sensor_id;sensor_type;location;lat;lon;timestamp;temperature;humidity
3418;DHT22;68007;51.312;12.372;2024-01-30T00:00:38;9.60;67.20
3418;DHT22;68007;51.312;12.372;2024-01-30T00:03:06;9.60;67.20
3418;DHT22;68007;51.312;12.372;2024-01-30T00:05:33;9.60;67.30
3418;DHT22;68007;51.312;12.372;2024-01-30T00:08:03;9.60;67.30
3418;DHT22;68007;51.312;12.372;2024-01-30T00:10:30;9.60;67.20
3418;DHT22;68007;51.312;12.372;2024-01-30T00:12:58;9.60;67.20
3418;DHT22;68007;51.312;12.372;2024-01-30T00:15:25;9.60;67.20
3418;DHT22;68007;51.312;12.372;2024-01-30T00:17:53;9.50;66.80
3418;DHT22;68007;51.312;12.372;2024-01-30T00:20:20;9.50;67.30
3418;DHT22;68007;51.312;12.372;2024-01-30T00:22:49;9.50;67.30
3418;DHT22;68007;51.312;12.372;2024-01-30T00:25:18;9.50;67.20
3418;DHT22;68007;51.312;12.372;2024-01-30T00:27:45;9.50;67.40
3418;DHT22;68007;51.312;12.372;2024-01-30T00:30:13;9.40;67.20
3418;DHT22;68007;51.312;12.372;2024-01-30T00:32:41;9.40;67.40
3418;DHT22;68007;51.312;12.372;2024-01-30T00:35:09;9.40;67.40
3418;DHT22;68007;51.312;12.372;2024-01-30T00:37:37;9.40;67.30
3418;DHT22;68007;51.312;12.372;2024-01-30T00:40:05;9.40;67.20
3418;DHT22;68007;51.312;12.372;2024-01-30T00:42:35;9.40;67.20
3418;DHT22;68007;51.312;12.372;2024-01-30T00:45:02;9.40;67.20
3418;DHT22;68007;51.312;12.372;2024-01-30T00:47:30;9.40;67.00
3418;DHT22;68007;51.312;12.372;2024-01-30T00:49:59;9.40;66.80
3418;DHT22;68007;51.312;12.372;2024-01-30T00:52:26;9.30;67.00
3418;DHT22;68007;51.312;12.372;2024-01-30T00:54:54;9.20;66.80
3418;DHT22;68007;51.312;12.372;2024-01-30T00:57:21;9.20;67.00
3418;DHT22;68007;51.312;12.372;2024-01-30T00:59:50;9.20;67.80
3418;DHT22;68007;51.312;12.372;2024-01-30T01:02:18;9.20;67.20
3418;DHT22;68007;51.312;12.372;2024-01-30T01:05:07;9.20;67.10
3418;DHT22;68007;51.312;12.372;2024-01-30T01:07:35;9.30;67.00
3418;DHT22;68007;51.312;12.372;2024-01-30T01:10:03;9.30;67.00
3418;DHT22;68007;51.312;12.372;2024-01-30T01:12:31;9.30;66.30
3418;DHT22;68007;51.312;12.372;2024-01-30T01:15:00;9.30;66.50
3418;DHT22;68007;51.312;12.372;2024-01-30T01:17:28;9.20;66.80
3418;DHT22;68007;51.312;12.372;2024-01-30T01:19:56;9.20;66.90
3418;DHT22;68007;51.312;12.372;2024-01-30T01:22:23;9.20;66.60
3418;DHT22;68007;51.312;12.372;2024-01-30T01:24:51;9.20;67.00
3418;DHT22;68007;51.312;12.372;2024-01-30T01:27:18;9.10;66.40
3418;DHT22;68007;51.312;12.372;2024-01-30T01:29:46;9.10;66.20
3418;DHT22;68007;51.312;12.372;2024-01-30T01:32:14;8.90;66.50
3418;DHT22;68007;51.312;12.372;2024-01-30T01:34:42;8.90;66.80
3418;DHT22;68007;51.312;12.372;2024-01-30T01:37:09;8.80;66.80
3418;DHT22;68007;51.312;12.372;2024-01-30T01:39:37;8.80;66.50
3418;DHT22;68007;51.312;12.372;2024-01-30T01:42:04;8.80;67.00
3418;DHT22;68007;51.312;12.372;2024-01-30T01:44:32;8.70;67.00
3418;DHT22;68007;51.312;12.372;2024-01-30T01:46:59;8.80;67.00
3418;DHT22;68007;51.312;12.372;2024-01-30T01:49:29;8.70;66.60
3418;DHT22;68007;51.312;12.372;2024-01-30T01:51:57;8.80;67.20
3418;DHT22;68007;51.312;12.372;2024-01-30T01:54:26;8.80;67.10
3418;DHT22;68007;51.312;12.372;2024-01-30T01:56:55;8.80;67.80
3418;DHT22;68007;51.312;12.372;2024-01-30T01:59:24;8.80;66.90
3418;DHT22;68007;51.312;12.372;2024-01-30T02:01:52;8.80;67.00
3418;DHT22;68007;51.312;12.372;2024-01-30T02:04:20;8.80;67.00
3418;DHT22;68007;51.312;12.372;2024-01-30T02:06:49;8.70;67.00
3418;DHT22;68007;51.312;12.372;2024-01-30T02:09:17;8.80;67.30
3418;DHT22;68007;51.312;12.372;2024-01-30T02:11:45;8.80;67.20
3418;DHT22;68007;51.312;12.372;2024-01-30T02:14:12;8.80;67.00
3418;DHT22;68007;51.312;12.372;2024-01-30T02:16:40;8.80;67.00
3418;DHT22;68007;51.312;12.372;2024-01-30T02:19:07;8.80;67.10
3418;DHT22;68007;51.312;12.372;2024-01-30T02:21:36;8.80;67.30
3418;DHT22;68007;51.312;12.372;2024-01-30T02:24:05;8.80;67.20
3418;DHT22;68007;51.312;12.372;2024-01-30T02:26:33;8.90;67.20
3418;DHT22;68007;51.312;12.372;2024-01-30T02:29:00;8.90;67.10
3418;DHT22;68007;51.312;12.372;2024-01-30T02:31:27;8.80;66.90
3418;DHT22;68007;51.312;12.372;2024-01-30T02:33:55;8.80;67.20
3418;DHT22;68007;51.312;12.372;2024-01-30T02:36:22;8.70;67.20
3418;DHT22;68007;51.312;12.372;2024-01-30T02:38:51;8.70;67.10
3418;DHT22;68007;51.312;12.372;2024-01-30T02:41:19;8.70;67.30
3418;DHT22;68007;51.312;12.372;2024-01-30T02:43:46;8.70;67.30
3418;DHT22;68007;51.312;12.372;2024-01-30T02:46:13;8.70;67.00
3418;DHT22;68007;51.312;12.372;2024-01-30T02:48:40;8.60;66.90
3418;DHT22;68007;51.312;12.372;2024-01-30T02:51:08;8.50;67.90
3418;DHT22;68007;51.312;12.372;2024-01-30T02:53:36;8.50;67.70
3418;DHT22;68007;51.312;12.372;2024-01-30T02:56:05;8.50;67.60
3418;DHT22;68007;51.312;12.372;2024-01-30T02:58:36;8.50;67.70
3418;DHT22;68007;51.312;12.372;2024-01-30T03:01:03;8.50;67.30
3418;DHT22;68007;51.312;12.372;2024-01-30T03:03:31;8.50;67.70
3418;DHT22;68007;51.312;12.372;2024-01-30T03:06:00;8.50;67.80
3418;DHT22;68007;51.312;12.372;2024-01-30T03:08:28;8.50;67.70
3418;DHT22;68007;51.312;12.372;2024-01-30T03:10:55;8.50;67.60
3418;DHT22;68007;51.312;12.372;2024-01-30T03:13:24;8.50;68.30
3418;DHT22;68007;51.312;12.372;2024-01-30T03:15:52;8.40;67.30
3418;DHT22;68007;51.312;12.372;2024-01-30T03:18:19;8.40;67.70
3418;DHT22;68007;51.312;12.372;2024-01-30T03:20:47;8.40;67.80
3418;DHT22;68007;51.312;12.372;2024-01-30T03:23:14;8.40;67.60
3418;DHT22;68007;51.312;12.372;2024-01-30T03:25:42;8.30;67.70
3418;DHT22;68007;51.312;12.372;2024-01-30T03:28:09;8.30;67.50
3418;DHT22;68007;51.312;12.372;2024-01-30T03:30:38;8.30;67.70
3418;DHT22;68007;51.312;12.372;2024-01-30T03:33:06;8.30;67.80
3418;DHT22;68007;51.312;12.372;2024-01-30T03:35:33;8.30;68.10
3418;DHT22;68007;51.312;12.372;2024-01-30T03:38:01;8.30;67.60
3418;DHT22;68007;51.312;12.372;2024-01-30T03:40:28;8.30;67.40
3418;DHT22;68007;51.312;12.372;2024-01-30T03:42:55;8.20;67.80
3418;DHT22;68007;51.312;12.372;2024-01-30T03:45:24;8.20;68.00
3418;DHT22;68007;51.312;12.372;2024-01-30T03:47:52;8.30;67.80
3418;DHT22;68007;51.312;12.372;2024-01-30T03:50:20;8.20;67.50
3418;DHT22;68007;51.312;12.372;2024-01-30T03:52:48;8.10;67.60
3418;DHT22;68007;51.312;12.372;2024-01-30T03:55:15;8.00;67.80
3418;DHT22;68007;51.312;12.372;2024-01-30T03:57:42;8.00;67.70
3418;DHT22;68007;51.312;12.372;2024-01-30T04:00:11;8.00;67.90
3418;DHT22;68007;51.312;12.372;2024-01-30T04:02:40;8.00;68.20
3418;DHT22;68007;51.312;12.372;2024-01-30T04:05:09;8.00;68.00
3418;DHT22;68007;51.312;12.372;2024-01-30T04:07:37;8.00;68.10
3418;DHT22;68007;51.312;12.372;2024-01-30T04:10:05;8.00;67.70
3418;DHT22;68007;51.312;12.372;2024-01-30T04:12:33;8.00;68.00
3418;DHT22;68007;51.312;12.372;2024-01-30T04:15:00;8.00;68.20
3418;DHT22;68007;51.312;12.372;2024-01-30T04:17:43;8.10;68.20
3418;DHT22;68007;51.312;12.372;2024-01-30T04:20:29;8.10;67.60
3418;DHT22;68007;51.312;12.372;2024-01-30T04:22:57;8.10;67.60
3418;DHT22;68007;51.312;12.372;2024-01-30T04:25:24;8.00;67.40
3418;DHT22;68007;51.312;12.372;2024-01-30T04:27:51;8.00;67.40
3418;DHT22;68007;51.312;12.372;2024-01-30T04:30:19;7.90;67.40
3418;DHT22;68007;51.312;12.372;2024-01-30T04:32:46;7.80;67.00
3418;DHT22;68007;51.312;12.372;2024-01-30T04:35:14;7.60;67.30
3418;DHT22;68007;51.312;12.372;2024-01-30T04:37:43;7.50;67.60
3418;DHT22;68007;51.312;12.372;2024-01-30T04:40:11;7.50;67.80
3418;DHT22;68007;51.312;12.372;2024-01-30T04:42:38;7.30;67.80
3418;DHT22;68007;51.312;12.372;2024-01-30T04:45:06;7.10;68.40
3418;DHT22;68007;51.312;12.372;2024-01-30T04:47:34;7.10;68.80
3418;DHT22;68007;51.312;12.372;2024-01-30T04:50:01;7.10;69.10
3418;DHT22;68007;51.312;12.372;2024-01-30T04:52:30;7.20;69.40
3418;DHT22;68007;51.312;12.372;2024-01-30T04:54:59;7.30;69.90
3418;DHT22;68007;51.312;12.372;2024-01-30T04:57:27;7.40;68.90
3418;DHT22;68007;51.312;12.372;2024-01-30T04:59:55;7.50;68.60
3418;DHT22;68007;51.312;12.372;2024-01-30T05:02:22;7.50;68.60
3418;DHT22;68007;51.312;12.372;2024-01-30T05:04:50;7.50;68.80
3418;DHT22;68007;51.312;12.372;2024-01-30T05:07:17;7.60;68.70
3418;DHT22;68007;51.312;12.372;2024-01-30T05:09:45;7.60;68.20
3418;DHT22;68007;51.312;12.372;2024-01-30T05:12:14;7.50;68.20
3418;DHT22;68007;51.312;12.372;2024-01-30T05:14:41;7.50;68.30
3418;DHT22;68007;51.312;12.372;2024-01-30T05:17:09;7.50;68.40
3418;DHT22;68007;51.312;12.372;2024-01-30T05:19:39;7.40;67.70
3418;DHT22;68007;51.312;12.372;2024-01-30T05:22:06;7.40;68.30
3418;DHT22;68007;51.312;12.372;2024-01-30T05:24:33;7.40;68.00
3418;DHT22;68007;51.312;12.372;2024-01-30T05:27:01;7.30;68.10
3418;DHT22;68007;51.312;12.372;2024-01-30T05:29:30;7.30;67.50
3418;DHT22;68007;51.312;12.372;2024-01-30T05:31:57;7.20;67.60
3418;DHT22;68007;51.312;12.372;2024-01-30T05:34:25;7.00;67.70
3418;DHT22;68007;51.312;12.372;2024-01-30T05:36:52;6.90;67.90
3418;DHT22;68007;51.312;12.372;2024-01-30T05:39:20;6.80;68.30
3418;DHT22;68007;51.312;12.372;2024-01-30T05:41:47;6.80;68.70
3418;DHT22;68007;51.312;12.372;2024-01-30T05:44:15;6.80;68.70
3418;DHT22;68007;51.312;12.372;2024-01-30T05:46:43;6.90;68.20
3418;DHT22;68007;51.312;12.372;2024-01-30T05:49:11;6.80;68.10
3418;DHT22;68007;51.312;12.372;2024-01-30T05:51:39;6.80;68.70
3418;DHT22;68007;51.312;12.372;2024-01-30T05:54:06;6.80;68.70
3418;DHT22;68007;51.312;12.372;2024-01-30T05:56:34;6.90;68.30
3418;DHT22;68007;51.312;12.372;2024-01-30T05:59:01;6.90;68.70
3418;DHT22;68007;51.312;12.372;2024-01-30T06:01:29;6.90;68.60
3418;DHT22;68007;51.312;12.372;2024-01-30T06:03:58;7.00;68.60
3418;DHT22;68007;51.312;12.372;2024-01-30T06:06:25;7.00;68.60
3418;DHT22;68007;51.312;12.372;2024-01-30T06:08:53;7.10;68.70
3418;DHT22;68007;51.312;12.372;2024-01-30T06:11:22;7.20;68.30
3418;DHT22;68007;51.312;12.372;2024-01-30T06:13:49;7.20;67.80
3418;DHT22;68007;51.312;12.372;2024-01-30T06:16:17;7.20;68.10
3418;DHT22;68007;51.312;12.372;2024-01-30T06:18:47;7.20;67.90
3418;DHT22;68007;51.312;12.372;2024-01-30T06:21:16;7.20;68.00
3418;DHT22;68007;51.312;12.372;2024-01-30T06:23:44;7.20;67.80
3418;DHT22;68007;51.312;12.372;2024-01-30T06:26:11;7.20;67.90
3418;DHT22;68007;51.312;12.372;2024-01-30T06:28:39;7.20;67.90
3418;DHT22;68007;51.312;12.372;2024-01-30T06:31:06;7.20;68.10
3418;DHT22;68007;51.312;12.372;2024-01-30T06:33:34;7.30;68.00
3418;DHT22;68007;51.312;12.372;2024-01-30T06:36:01;7.30;67.70
3418;DHT22;68007;51.312;12.372;2024-01-30T06:38:30;7.20;67.30
3418;DHT22;68007;51.312;12.372;2024-01-30T06:40:58;7.20;67.60
3418;DHT22;68007;51.312;12.372;2024-01-30T06:43:25;7.10;67.60
3418;DHT22;68007;51.312;12.372;2024-01-30T06:45:52;7.10;67.70
3418;DHT22;68007;51.312;12.372;2024-01-30T06:48:20;7.20;68.10
3418;DHT22;68007;51.312;12.372;2024-01-30T06:50:47;7.20;67.40
3418;DHT22;68007;51.312;12.372;2024-01-30T06:53:15;7.10;67.40
3418;DHT22;68007;51.312;12.372;2024-01-30T06:55:44;7.10;67.50
3418;DHT22;68007;51.312;12.372;2024-01-30T06:58:12;7.10;67.70
3418;DHT22;68007;51.312;12.372;2024-01-30T07:00:39;7.20;68.00
3418;DHT22;68007;51.312;12.372;2024-01-30T07:03:07;7.20;67.60
3418;DHT22;68007;51.312;12.372;2024-01-30T07:05:34;7.20;67.10
3418;DHT22;68007;51.312;12.372;2024-01-30T07:08:02;7.20;67.50
3418;DHT22;68007;51.312;12.372;2024-01-30T07:10:29;7.20;67.10
3418;DHT22;68007;51.312;12.372;2024-01-30T07:13:00;7.20;67.30
3418;DHT22;68007;51.312;12.372;2024-01-30T07:15:27;7.10;67.60
3418;DHT22;68007;51.312;12.372;2024-01-30T07:17:55;7.10;67.60
3418;DHT22;68007;51.312;12.372;2024-01-30T07:20:23;7.10;67.80
3418;DHT22;68007;51.312;12.372;2024-01-30T07:22:50;7.10;67.60
3418;DHT22;68007;51.312;12.372;2024-01-30T07:25:18;7.10;67.50
3418;DHT22;68007;51.312;12.372;2024-01-30T07:27:45;7.10;67.40
3418;DHT22;68007;51.312;12.372;2024-01-30T07:30:14;7.00;67.10
3418;DHT22;68007;51.312;12.372;2024-01-30T07:32:43;6.90;67.40
3418;DHT22;68007;51.312;12.372;2024-01-30T07:35:10;6.80;67.30
3418;DHT22;68007;51.312;12.372;2024-01-30T07:37:38;6.80;67.60
3418;DHT22;68007;51.312;12.372;2024-01-30T07:40:06;6.70;67.70
3418;DHT22;68007;51.312;12.372;2024-01-30T07:42:34;6.80;68.20
3418;DHT22;68007;51.312;12.372;2024-01-30T07:45:01;6.80;67.90
3418;DHT22;68007;51.312;12.372;2024-01-30T07:47:31;6.90;68.00
3418;DHT22;68007;51.312;12.372;2024-01-30T07:49:58;6.90;68.20
3418;DHT22;68007;51.312;12.372;2024-01-30T07:52:26;7.00;67.90
3418;DHT22;68007;51.312;12.372;2024-01-30T07:54:54;6.90;68.00
3418;DHT22;68007;51.312;12.372;2024-01-30T07:57:21;7.00;67.80
3418;DHT22;68007;51.312;12.372;2024-01-30T07:59:49;7.00;67.70
3418;DHT22;68007;51.312;12.372;2024-01-30T08:02:16;6.90;67.70
3418;DHT22;68007;51.312;12.372;2024-01-30T08:04:45;7.00;68.10
3418;DHT22;68007;51.312;12.372;2024-01-30T08:07:15;7.00;68.00
3418;DHT22;68007;51.312;12.372;2024-01-30T08:09:43;7.00;67.90
3418;DHT22;68007;51.312;12.372;2024-01-30T08:12:11;7.00;67.90
3418;DHT22;68007;51.312;12.372;2024-01-30T08:14:39;7.00;67.90
3418;DHT22;68007;51.312;12.372;2024-01-30T08:17:07;7.00;68.00
3418;DHT22;68007;51.312;12.372;2024-01-30T08:19:35;7.00;68.10
3418;DHT22;68007;51.312;12.372;2024-01-30T08:22:03;7.10;67.50
3418;DHT22;68007;51.312;12.372;2024-01-30T08:24:31;7.00;67.60
3418;DHT22;68007;51.312;12.372;2024-01-30T08:26:58;7.00;68.00
3418;DHT22;68007;51.312;12.372;2024-01-30T08:29:28;7.00;68.10
3418;DHT22;68007;51.312;12.372;2024-01-30T08:31:56;7.00;68.30
3418;DHT22;68007;51.312;12.372;2024-01-30T08:34:25;7.00;68.00
3418;DHT22;68007;51.312;12.372;2024-01-30T08:36:53;7.10;68.40
3418;DHT22;68007;51.312;12.372;2024-01-30T08:39:22;7.10;68.60
3418;DHT22;68007;51.312;12.372;2024-01-30T08:41:49;7.10;68.20
3418;DHT22;68007;51.312;12.372;2024-01-30T08:44:17;7.10;68.20
3418;DHT22;68007;51.312;12.372;2024-01-30T08:46:44;7.20;68.30
3418;DHT22;68007;51.312;12.372;2024-01-30T08:49:12;7.10;68.30
3418;DHT22;68007;51.312;12.372;2024-01-30T08:51:40;7.10;68.60
3418;DHT22;68007;51.312;12.372;2024-01-30T08:54:08;7.20;68.60
3418;DHT22;68007;51.312;12.372;2024-01-30T08:56:36;7.10;68.60
3418;DHT22;68007;51.312;12.372;2024-01-30T08:59:04;7.10;68.70
3418;DHT22;68007;51.312;12.372;2024-01-30T09:01:31;7.20;69.10
3418;DHT22;68007;51.312;12.372;2024-01-30T09:03:59;7.20;68.90
3418;DHT22;68007;51.312;12.372;2024-01-30T09:06:26;7.20;69.10
3418;DHT22;68007;51.312;12.372;2024-01-30T09:08:55;7.30;69.00
3418;DHT22;68007;51.312;12.372;2024-01-30T09:11:24;7.30;69.80
3418;DHT22;68007;51.312;12.372;2024-01-30T09:13:53;7.30;69.30
3418;DHT22;68007;51.312;12.372;2024-01-30T09:16:20;7.30;69.30
3418;DHT22;68007;51.312;12.372;2024-01-30T09:18:48;7.40;69.40
3418;DHT22;68007;51.312;12.372;2024-01-30T09:21:15;7.40;69.50
3418;DHT22;68007;51.312;12.372;2024-01-30T09:23:43;7.50;69.50
3418;DHT22;68007;51.312;12.372;2024-01-30T09:26:10;7.50;69.60
3418;DHT22;68007;51.312;12.372;2024-01-30T09:28:38;7.60;69.60
3418;DHT22;68007;51.312;12.372;2024-01-30T09:31:11;7.60;69.70
3418;DHT22;68007;51.312;12.372;2024-01-30T09:33:39;7.70;69.70
3418;DHT22;68007;51.312;12.372;2024-01-30T09:36:08;7.70;69.70
3418;DHT22;68007;51.312;12.372;2024-01-30T09:38:35;7.80;69.80
3418;DHT22;68007;51.312;12.372;2024-01-30T09:41:08;7.80;69.90
3418;DHT22;68007;51.312;12.372;2024-01-30T09:43:37;7.90;69.80
3418;DHT22;68007;51.312;12.372;2024-01-30T09:46:05;7.90;69.90
3418;DHT22;68007;51.312;12.372;2024-01-30T09:48:36;7.90;69.90
3418;DHT22;68007;51.312;12.372;2024-01-30T09:51:04;8.00;70.30
3418;DHT22;68007;51.312;12.372;2024-01-30T09:53:32;8.00;70.00
3418;DHT22;68007;51.312;12.372;2024-01-30T09:56:00;8.00;70.00
3418;DHT22;68007;51.312;12.372;2024-01-30T09:58:28;8.10;70.20
3418;DHT22;68007;51.312;12.372;2024-01-30T10:00:56;8.10;70.20
3418;DHT22;68007;51.312;12.372;2024-01-30T10:03:23;8.00;70.20
3418;DHT22;68007;51.312;12.372;2024-01-30T10:05:53;8.10;70.40
3418;DHT22;68007;51.312;12.372;2024-01-30T10:08:22;8.20;70.50
3418;DHT22;68007;51.312;12.372;2024-01-30T10:10:50;8.20;70.50
3418;DHT22;68007;51.312;12.372;2024-01-30T10:13:17;8.30;70.50
3418;DHT22;68007;51.312;12.372;2024-01-30T10:15:45;8.30;70.60
3418;DHT22;68007;51.312;12.372;2024-01-30T10:18:13;8.30;70.80
3418;DHT22;68007;51.312;12.372;2024-01-30T10:20:40;8.40;70.80
3418;DHT22;68007;51.312;12.372;2024-01-30T10:23:09;8.40;70.80
3418;DHT22;68007;51.312;12.372;2024-01-30T10:25:37;8.50;70.90
3418;DHT22;68007;51.312;12.372;2024-01-30T10:28:05;8.60;71.00
3418;DHT22;68007;51.312;12.372;2024-01-30T10:30:33;8.60;71.00
3418;DHT22;68007;51.312;12.372;2024-01-30T10:33:00;8.60;71.10
3418;DHT22;68007;51.312;12.372;2024-01-30T10:35:28;8.70;71.30
3418;DHT22;68007;51.312;12.372;2024-01-30T10:37:57;8.70;71.20
3418;DHT22;68007;51.312;12.372;2024-01-30T10:40:28;8.80;71.30
3418;DHT22;68007;51.312;12.372;2024-01-30T10:42:56;8.80;71.30
3418;DHT22;68007;51.312;12.372;2024-01-30T10:45:26;8.90;71.40
3418;DHT22;68007;51.312;12.372;2024-01-30T10:47:55;8.90;71.50
3418;DHT22;68007;51.312;12.372;2024-01-30T10:50:24;9.00;71.40
3418;DHT22;68007;51.312;12.372;2024-01-30T10:52:52;9.00;71.50
3418;DHT22;68007;51.312;12.372;2024-01-30T10:55:22;9.00;71.50
3418;DHT22;68007;51.312;12.372;2024-01-30T10:57:51;9.10;71.40
3418;DHT22;68007;51.312;12.372;2024-01-30T11:00:19;9.20;71.50
3418;DHT22;68007;51.312;12.372;2024-01-30T11:02:50;9.20;71.40
3418;DHT22;68007;51.312;12.372;2024-01-30T11:05:24;9.30;71.40
3418;DHT22;68007;51.312;12.372;2024-01-30T11:07:52;9.30;71.40
3418;DHT22;68007;51.312;12.372;2024-01-30T11:10:20;9.30;71.50
3418;DHT22;68007;51.312;12.372;2024-01-30T11:12:47;9.40;71.50
3418;DHT22;68007;51.312;12.372;2024-01-30T11:15:18;9.50;71.50
3418;DHT22;68007;51.312;12.372;2024-01-30T11:17:51;9.50;71.60
3418;DHT22;68007;51.312;12.372;2024-01-30T11:20:20;9.50;71.60
3418;DHT22;68007;51.312;12.372;2024-01-30T11:22:51;9.60;71.70
3418;DHT22;68007;51.312;12.372;2024-01-30T11:25:20;9.60;71.70
3418;DHT22;68007;51.312;12.372;2024-01-30T11:27:50;9.70;71.70
3418;DHT22;68007;51.312;12.372;2024-01-30T11:30:25;9.80;71.80
3418;DHT22;68007;51.312;12.372;2024-01-30T11:33:03;9.80;71.70
3418;DHT22;68007;51.312;12.372;2024-01-30T11:35:32;9.90;71.80
3418;DHT22;68007;51.312;12.372;2024-01-30T11:38:00;9.90;72.00
3418;DHT22;68007;51.312;12.372;2024-01-30T11:40:28;10.00;72.10
3418;DHT22;68007;51.312;12.372;2024-01-30T11:42:56;10.00;72.10
3418;DHT22;68007;51.312;12.372;2024-01-30T11:45:26;10.10;72.90
3418;DHT22;68007;51.312;12.372;2024-01-30T11:47:54;10.10;72.00
3418;DHT22;68007;51.312;12.372;2024-01-30T11:50:22;10.20;72.30
3418;DHT22;68007;51.312;12.372;2024-01-30T11:52:50;10.20;72.70
3418;DHT22;68007;51.312;12.372;2024-01-30T11:55:18;10.30;72.90
3418;DHT22;68007;51.312;12.372;2024-01-30T11:57:46;10.40;72.90
3418;DHT22;68007;51.312;12.372;2024-01-30T12:00:17;10.50;73.30
3418;DHT22;68007;51.312;12.372;2024-01-30T12:02:50;10.70;73.60
3418;DHT22;68007;51.312;12.372;2024-01-30T12:05:21;10.90;73.40
3418;DHT22;68007;51.312;12.372;2024-01-30T12:07:49;11.00;73.60
3418;DHT22;68007;51.312;12.372;2024-01-30T12:10:17;11.10;72.90
3418;DHT22;68007;51.312;12.372;2024-01-30T12:12:46;11.20;73.00
3418;DHT22;68007;51.312;12.372;2024-01-30T12:15:15;11.30;73.50
3418;DHT22;68007;51.312;12.372;2024-01-30T12:17:42;11.40;73.40
3418;DHT22;68007;51.312;12.372;2024-01-30T12:20:12;11.50;72.70
3418;DHT22;68007;51.312;12.372;2024-01-30T12:22:44;11.70;73.00
3418;DHT22;68007;51.312;12.372;2024-01-30T12:25:13;11.80;72.60
3418;DHT22;68007;51.312;12.372;2024-01-30T12:27:43;11.90;72.50
3418;DHT22;68007;51.312;12.372;2024-01-30T12:30:12;12.00;72.40
3418;DHT22;68007;51.312;12.372;2024-01-30T12:32:41;12.00;72.40
3418;DHT22;68007;51.312;12.372;2024-01-30T12:35:12;12.10;72.40
3418;DHT22;68007;51.312;12.372;2024-01-30T12:37:41;12.10;72.20
3418;DHT22;68007;51.312;12.372;2024-01-30T12:40:10;12.10;72.20
3418;DHT22;68007;51.312;12.372;2024-01-30T12:42:39;12.00;72.40
3418;DHT22;68007;51.312;12.372;2024-01-30T12:45:08;12.00;72.80
3418;DHT22;68007;51.312;12.372;2024-01-30T12:47:36;12.20;73.40
3418;DHT22;68007;51.312;12.372;2024-01-30T12:50:04;12.40;73.10
3418;DHT22;68007;51.312;12.372;2024-01-30T12:52:33;12.60;72.60
3418;DHT22;68007;51.312;12.372;2024-01-30T12:55:02;12.70;72.50
3418;DHT22;68007;51.312;12.372;2024-01-30T12:57:30;12.70;72.50
3418;DHT22;68007;51.312;12.372;2024-01-30T12:59:58;12.80;72.50
3418;DHT22;68007;51.312;12.372;2024-01-30T13:02:25;12.90;72.10
3418;DHT22;68007;51.312;12.372;2024-01-30T13:05:01;13.00;72.00
3418;DHT22;68007;51.312;12.372;2024-01-30T13:07:29;13.10;72.00
3418;DHT22;68007;51.312;12.372;2024-01-30T13:09:58;13.10;72.00
3418;DHT22;68007;51.312;12.372;2024-01-30T13:12:28;13.20;71.70
3418;DHT22;68007;51.312;12.372;2024-01-30T13:14:56;13.20;71.60
3418;DHT22;68007;51.312;12.372;2024-01-30T13:17:24;13.30;71.20
3418;DHT22;68007;51.312;12.372;2024-01-30T13:19:51;13.30;71.00
3418;DHT22;68007;51.312;12.372;2024-01-30T13:22:20;13.40;70.60
3418;DHT22;68007;51.312;12.372;2024-01-30T13:24:48;13.50;70.60
3418;DHT22;68007;51.312;12.372;2024-01-30T13:27:17;13.50;70.60
3418;DHT22;68007;51.312;12.372;2024-01-30T13:29:45;13.60;70.50
3418;DHT22;68007;51.312;12.372;2024-01-30T13:32:12;13.60;70.40
3418;DHT22;68007;51.312;12.372;2024-01-30T13:34:40;13.50;70.60
3418;DHT22;68007;51.312;12.372;2024-01-30T13:37:07;13.50;70.50
3418;DHT22;68007;51.312;12.372;2024-01-30T13:39:35;13.60;70.50
3418;DHT22;68007;51.312;12.372;2024-01-30T13:42:03;13.50;70.40
3418;DHT22;68007;51.312;12.372;2024-01-30T13:44:31;13.50;70.70
3418;DHT22;68007;51.312;12.372;2024-01-30T13:47:02;13.60;70.50
3418;DHT22;68007;51.312;12.372;2024-01-30T13:49:29;13.70;70.40
3418;DHT22;68007;51.312;12.372;2024-01-30T13:51:57;13.80;69.80
3418;DHT22;68007;51.312;12.372;2024-01-30T13:54:25;13.90;69.50
3418;DHT22;68007;51.312;12.372;2024-01-30T13:56:52;13.80;68.70
3418;DHT22;68007;51.312;12.372;2024-01-30T13:59:20;13.80;68.90
3418;DHT22;68007;51.312;12.372;2024-01-30T14:01:51;13.80;68.90
3418;DHT22;68007;51.312;12.372;2024-01-30T14:04:19;13.80;69.10
3418;DHT22;68007;51.312;12.372;2024-01-30T14:06:47;13.80;68.90
3418;DHT22;68007;51.312;12.372;2024-01-30T14:09:14;13.70;69.40
3418;DHT22;68007;51.312;12.372;2024-01-30T14:11:42;13.70;69.80
3418;DHT22;68007;51.312;12.372;2024-01-30T14:14:09;13.70;69.70
3418;DHT22;68007;51.312;12.372;2024-01-30T14:16:37;13.70;69.40
3418;DHT22;68007;51.312;12.372;2024-01-30T14:19:06;13.70;69.40
3418;DHT22;68007;51.312;12.372;2024-01-30T14:21:33;13.70;69.80
3418;DHT22;68007;51.312;12.372;2024-01-30T14:24:01;13.70;69.60
3418;DHT22;68007;51.312;12.372;2024-01-30T14:26:31;13.60;69.90
3418;DHT22;68007;51.312;12.372;2024-01-30T14:28:58;13.60;70.00
3418;DHT22;68007;51.312;12.372;2024-01-30T14:31:26;13.60;70.20
3418;DHT22;68007;51.312;12.372;2024-01-30T14:33:53;13.60;70.10
3418;DHT22;68007;51.312;12.372;2024-01-30T14:36:24;13.50;70.50
3418;DHT22;68007;51.312;12.372;2024-01-30T14:38:54;13.50;70.60
3418;DHT22;68007;51.312;12.372;2024-01-30T14:41:21;13.50;71.50
3418;DHT22;68007;51.312;12.372;2024-01-30T14:43:49;13.50;70.90
3418;DHT22;68007;51.312;12.372;2024-01-30T14:46:16;13.50;71.20
3418;DHT22;68007;51.312;12.372;2024-01-30T14:48:44;13.50;71.10
3418;DHT22;68007;51.312;12.372;2024-01-30T14:51:11;13.50;71.20
3418;DHT22;68007;51.312;12.372;2024-01-30T14:53:40;13.50;71.20
3418;DHT22;68007;51.312;12.372;2024-01-30T14:56:08;13.50;71.30
3418;DHT22;68007;51.312;12.372;2024-01-30T14:58:36;13.40;71.90
3418;DHT22;68007;51.312;12.372;2024-01-30T15:01:04;13.40;71.80
3418;DHT22;68007;51.312;12.372;2024-01-30T15:03:31;13.40;71.90
3418;DHT22;68007;51.312;12.372;2024-01-30T15:05:59;13.40;72.10
3418;DHT22;68007;51.312;12.372;2024-01-30T15:08:27;13.40;72.00
3418;DHT22;68007;51.312;12.372;2024-01-30T15:10:55;13.40;72.10
3418;DHT22;68007;51.312;12.372;2024-01-30T15:13:23;13.40;72.20
3418;DHT22;68007;51.312;12.372;2024-01-30T15:15:52;13.40;72.20
3418;DHT22;68007;51.312;12.372;2024-01-30T15:18:19;13.40;72.30
3418;DHT22;68007;51.312;12.372;2024-01-30T15:20:47;13.40;72.30
3418;DHT22;68007;51.312;12.372;2024-01-30T15:23:14;13.30;72.30
3418;DHT22;68007;51.312;12.372;2024-01-30T15:25:42;13.30;72.70
3418;DHT22;68007;51.312;12.372;2024-01-30T15:28:11;13.30;72.70
3418;DHT22;68007;51.312;12.372;2024-01-30T15:30:41;13.20;72.80
3418;DHT22;68007;51.312;12.372;2024-01-30T15:33:09;13.20;73.20
3418;DHT22;68007;51.312;12.372;2024-01-30T15:35:37;13.20;73.20
3418;DHT22;68007;51.312;12.372;2024-01-30T15:38:05;13.20;73.10
3418;DHT22;68007;51.312;12.372;2024-01-30T15:40:34;13.20;73.40
3418;DHT22;68007;51.312;12.372;2024-01-30T15:43:02;13.30;74.10
3418;DHT22;68007;51.312;12.372;2024-01-30T15:45:31;13.30;73.30
3418;DHT22;68007;51.312;12.372;2024-01-30T15:47:58;13.30;73.00